Minerva Astra — 9HDW7 — position and weather

sailwx.info

Track history (hours):
 
Tides and Currents Weather Stations Pressure Air Temp Water Temp Dewpoint Dewpoint Depression Visibility Wind Speed Wind Dir Waves Ship Positions

Minerva Astra

Last reported at 2016-Jul-24 20:33 UTC. Time now 2016-Jul-25 17:54 UTC.
Position N 44°22' E 035°50'.

Length 248 m; draft 8.5 m.

Type: Tanker. MMSI: 256703000.

Date/timePositionNaut miles runAvg speedWind from/ knotsBaromVisibWave heightAir tempDewpointWater temp
2016-Jul-24 20:33N 44°22' E 035°50'1 0.5
2016-Jul-24 19:33N 44°21' E 035°50'1 0.7
2016-Jul-24 18:33N 44°21' E 035°49'1 0.7
2016-Jul-24 17:33N 44°20' E 035°49'1 0.7
2016-Jul-24 16:33N 44°20' E 035°48'1 0.5
2016-Jul-24 14:33N 44°19' E 035°48'1 0.5
2016-Jul-24 13:24N 44°18' E 035°48'1 0.8
2016-Jul-24 12:33N 44°18' E 035°49'1 0.8
2016-Jul-24 11:31N 44°17' E 035°49'1 0.7
2016-Jul-24 10:33N 44°16' E 035°50'7 0.5
2016-Jul-23 20:10N 44°11' E 035°44'1 0.9
2016-Jul-23 19:06N 44°10' E 035°45'0 0.8
2016-Jul-23 18:33N 44°09' E 035°45'1 0.2
2016-Jul-23 12:18N 44°08' E 035°44'3 2.8
2016-Jul-23 11:07N 44°06' E 035°40'1811.5
2016-Jul-23 09:32N 43°57' E 035°18'1111.3
2016-Jul-23 08:34N 43°52' E 035°05'1111.3
2016-Jul-23 07:33N 43°46' E 034°51'1413.7
2016-Jul-23 06:33N 43°39' E 034°35'  
2016-Jul-19 07:19N 37°56' E 024°37'34 8.9
2016-Jul-19 03:31N 37°26' E 024°18'1010.1
2016-Jul-19 02:33N 37°19' E 024°09'10 9.2
2016-Jul-19 01:30N 37°12' E 024°01'4610.4
2016-Jul-18 21:05N 36°36' E 023°24'910.8
2016-Jul-18 20:13N 36°28' E 023°18'  
2016-Jul-16 00:18N 45°08' E 013°04'810.9
2016-Jul-15 23:34N 45°16' E 013°02'1010.1
2016-Jul-15 22:33N 45°26' E 013°05'  
Track history (hours):
 
Tides and Currents Weather Stations Pressure Air Temp Water Temp Dewpoint Dewpoint Depression Visibility Wind Speed Wind Dir Waves Ship Positions

Minerva Astra

Last reported at 2016-Jul-24 20:33 UTC. Time now 2016-Jul-25 17:54 UTC.
Position N 44°22' E 035°50'.

Length 248 m; draft 8.5 m.

Type: Tanker. MMSI: 256703000.

Date/timePositionNaut miles runAvg speedWind from/ knotsBaromVisibWave heightAir tempDewpointWater temp
2016-Jul-24 20:33N 44°22' E 035°50'1 0.5
2016-Jul-24 19:33N 44°21' E 035°50'1 0.7
2016-Jul-24 18:33N 44°21' E 035°49'1 0.7
2016-Jul-24 17:33N 44°20' E 035°49'1 0.7
2016-Jul-24 16:33N 44°20' E 035°48'1 0.5
2016-Jul-24 14:33N 44°19' E 035°48'1 0.5
2016-Jul-24 13:24N 44°18' E 035°48'1 0.8
2016-Jul-24 12:33N 44°18' E 035°49'1 0.8
2016-Jul-24 11:31N 44°17' E 035°49'1 0.7
2016-Jul-24 10:33N 44°16' E 035°50'7 0.5
2016-Jul-23 20:10N 44°11' E 035°44'1 0.9
2016-Jul-23 19:06N 44°10' E 035°45'0 0.8
2016-Jul-23 18:33N 44°09' E 035°45'1 0.2
2016-Jul-23 12:18N 44°08' E 035°44'3 2.8
2016-Jul-23 11:07N 44°06' E 035°40'1811.5
2016-Jul-23 09:32N 43°57' E 035°18'1111.3
2016-Jul-23 08:34N 43°52' E 035°05'1111.3
2016-Jul-23 07:33N 43°46' E 034°51'1413.7
2016-Jul-23 06:33N 43°39' E 034°35'  
2016-Jul-19 07:19N 37°56' E 024°37'34 8.9
2016-Jul-19 03:31N 37°26' E 024°18'1010.1
2016-Jul-19 02:33N 37°19' E 024°09'10 9.2
2016-Jul-19 01:30N 37°12' E 024°01'4610.4
2016-Jul-18 21:05N 36°36' E 023°24'910.8
2016-Jul-18 20:13N 36°28' E 023°18'  
2016-Jul-16 00:18N 45°08' E 013°04'810.9
2016-Jul-15 23:34N 45°16' E 013°02'1010.1
2016-Jul-15 22:33N 45°26' E 013°05'  

Dump ship's entire track history